Time;durP1;ratioP1;P1;durP2;ratioP2;P2;SDS_P1;SDS_P2;PMS_P1;PMS_P2;Temp;Humidity;BMP_temperature;BMP_pressure;BME280_temperature;BME280_humidity;BME280_pressure;Samples;Min_cycle;Max_cycle;Signal;HPM_P1;HPM_P2
2021/05/04 00:01:31;;;;;;;3.42;2.35;;;;;;;10.43;45.44;100052.47;5028964;28;20134;-67
2021/05/04 00:03:57;;;;;;;3.25;2.13;;;;;;;10.46;45.66;100053.97;5029892;28;20025;-66
2021/05/04 00:06:22;;;;;;;2.85;2.15;;;;;;;10.49;45.53;100048.38;5029663;28;20041;-67
2021/05/04 00:08:47;;;;;;;4.32;2.30;;;;;;;10.50;45.74;100045.56;5029894;28;20151;-67
2021/05/04 00:11:13;;;;;;;3.97;1.92;;;;;;;10.47;46.18;100055.63;5028750;28;20110;-66
2021/05/04 00:13:38;;;;;;;3.05;2.08;;;;;;;10.47;46.16;100047.72;5029783;28;20037;-67
2021/05/04 00:16:04;;;;;;;3.13;2.00;;;;;;;10.43;46.27;100036.63;5022561;28;20491;-67
2021/05/04 00:18:30;;;;;;;3.25;2.20;;;;;;;10.46;46.23;100043.38;5027869;28;20560;-67
2021/05/04 00:20:55;;;;;;;4.60;2.20;;;;;;;10.45;46.65;100034.66;5029734;28;20037;-67
2021/05/04 00:23:21;;;;;;;3.70;2.50;;;;;;;10.45;46.47;100028.53;5029481;28;20087;-67
2021/05/04 00:25:46;;;;;;;3.40;2.20;;;;;;;10.45;46.35;100015.31;5029748;28;20052;-67
2021/05/04 00:28:12;;;;;;;2.80;1.75;;;;;;;10.50;46.28;100023.59;5028778;28;20112;-67
2021/05/04 00:30:37;;;;;;;3.63;2.00;;;;;;;10.53;46.51;100020.59;5030202;28;20513;-66
2021/05/04 00:33:03;;;;;;;4.35;2.10;;;;;;;10.55;46.64;100013.34;5029752;28;20063;-66
2021/05/04 00:35:28;;;;;;;2.85;2.03;;;;;;;10.53;46.29;100005.56;5029656;28;20033;-66
2021/05/04 00:37:53;;;;;;;3.05;2.00;;;;;;;10.55;46.24;100002.75;5029383;28;20057;-66
2021/05/04 00:40:19;;;;;;;3.22;1.90;;;;;;;10.58;46.38;100000.63;5029182;28;20049;-67
2021/05/04 00:42:44;;;;;;;5.00;1.92;;;;;;;10.58;46.15;99989.22;5027876;28;20048;-66
2021/05/04 00:45:10;;;;;;;3.40;2.30;;;;;;;10.56;46.26;99985.94;5029715;28;20061;-66
2021/05/04 00:47:35;;;;;;;3.25;1.90;;;;;;;10.57;46.48;99987.56;5028431;28;20038;-66
2021/05/04 00:50:01;;;;;;;4.28;2.03;;;;;;;10.61;46.37;99980.97;5028225;28;20041;-67
2021/05/04 00:52:26;;;;;;;4.53;1.95;;;;;;;10.58;46.36;99978.63;5028002;28;20060;-67
2021/05/04 00:54:52;;;;;;;5.82;2.10;;;;;;;10.64;45.93;99972.69;5029988;28;20033;-67
2021/05/04 00:57:18;;;;;;;3.17;1.90;;;;;;;10.62;46.59;99966.75;5009843;28;20042;-66
2021/05/04 00:59:44;;;;;;;5.55;1.90;;;;;;;10.59;46.41;99956.50;5020272;28;20033;-66
2021/05/04 01:02:10;;;;;;;4.47;1.80;;;;;;;10.60;46.07;99948.38;5027728;28;20044;-66
2021/05/04 01:04:38;;;;;;;2.20;1.65;;;;;;;10.60;46.24;99947.56;5029156;28;20390;-67
2021/05/04 01:07:03;;;;;;;2.80;1.85;;;;;;;10.55;46.23;99942.78;5029445;28;20025;-66
2021/05/04 01:09:29;;;;;;;3.47;2.03;;;;;;;10.55;46.60;99939.31;5028885;28;20362;-67
2021/05/04 01:11:54;;;;;;;3.20;1.98;;;;;;;10.52;46.51;99942.31;5027728;28;20033;-66
2021/05/04 01:14:21;;;;;;;4.25;2.20;;;;;;;10.48;46.62;99935.69;5028582;28;20030;-67
2021/05/04 01:16:49;;;;;;;3.83;2.00;;;;;;;10.47;46.62;99932.22;5027835;28;20072;-66
2021/05/04 01:19:16;;;;;;;2.92;1.90;;;;;;;10.47;46.55;99926.13;5029718;28;20125;-67
2021/05/04 01:21:41;;;;;;;2.90;2.00;;;;;;;10.47;46.42;99920.81;5028517;28;20272;-67
2021/05/04 01:24:07;;;;;;;3.60;1.70;;;;;;;10.40;46.78;99905.63;5029160;28;20087;-67
2021/05/04 01:26:32;;;;;;;3.15;1.80;;;;;;;10.48;46.25;99911.91;5030281;28;20029;-66
2021/05/04 01:28:58;;;;;;;3.35;1.50;;;;;;;10.37;46.73;99908.59;5030669;28;20033;-66
2021/05/04 01:31:23;;;;;;;2.67;1.80;;;;;;;10.39;46.75;99903.97;5029453;28;20596;-66
2021/05/04 01:33:48;;;;;;;2.55;1.83;;;;;;;10.46;46.37;99903.31;5030255;28;20442;-66
2021/05/04 01:36:16;;;;;;;2.80;1.70;;;;;;;10.46;46.45;99908.59;5028819;28;20095;-66
2021/05/04 01:38:41;;;;;;;2.63;1.63;;;;;;;10.45;46.58;99901.66;5028841;28;20402;-67
2021/05/04 01:41:06;;;;;;;2.35;1.83;;;;;;;10.40;46.70;99905.63;5028381;28;20045;-67
2021/05/04 01:43:32;;;;;;;2.75;1.80;;;;;;;10.37;47.12;99895.38;5029189;28;20041;-66
2021/05/04 01:45:57;;;;;;;4.22;2.03;;;;;;;10.37;46.80;99895.38;5029204;28;20572;-66
2021/05/04 01:48:22;;;;;;;3.20;1.80;;;;;;;10.38;46.72;99883.81;5028674;28;20521;-67
2021/05/04 01:50:48;;;;;;;3.00;1.80;;;;;;;10.37;46.89;99884.00;5029062;28;20030;-67
2021/05/04 01:53:13;;;;;;;2.95;1.92;;;;;;;10.34;47.15;99882.47;5028584;28;20418;-67
2021/05/04 01:55:39;;;;;;;2.53;1.73;;;;;;;10.31;47.22;99868.78;5029097;28;20532;-66
2021/05/04 01:58:04;;;;;;;3.33;1.95;;;;;;;10.32;47.21;99873.94;5028076;28;20061;-67
2021/05/04 02:00:29;;;;;;;2.80;1.90;;;;;;;10.28;47.26;99864.66;5027034;28;20506;-66
2021/05/04 02:02:55;;;;;;;3.58;2.08;;;;;;;10.25;47.38;99853.56;5029018;28;20090;-67
2021/05/04 02:05:20;;;;;;;3.85;1.90;;;;;;;10.22;48.04;99860.00;5028795;28;20041;-66
2021/05/04 02:07:46;;;;;;;3.08;1.60;;;;;;;10.24;47.47;99844.81;5028890;28;20103;-66
2021/05/04 02:10:12;;;;;;;3.83;1.70;;;;;;;10.22;47.50;99841.50;5028413;28;20542;-67
2021/05/04 02:12:39;;;;;;;2.97;1.80;;;;;;;10.23;47.46;99839.72;5026538;28;20030;-66
2021/05/04 02:15:05;;;;;;;4.70;1.90;;;;;;;10.21;47.54;99832.75;5032413;28;20033;-67
2021/05/04 02:17:30;;;;;;;2.20;1.50;;;;;;;10.20;47.88;99833.75;5032275;28;20379;-67
2021/05/04 02:19:56;;;;;;;3.20;2.03;;;;;;;10.23;47.61;99826.50;5032186;28;20104;-66
2021/05/04 02:22:21;;;;;;;4.68;1.80;;;;;;;10.12;48.20;99820.53;5029923;28;20034;-67
2021/05/04 02:24:48;;;;;;;3.03;1.80;;;;;;;10.22;47.69;99815.09;5032368;28;20022;-65
2021/05/04 02:27:13;;;;;;;2.85;2.10;;;;;;;10.26;47.61;99818.25;5031652;28;20136;-67
2021/05/04 02:29:38;;;;;;;2.55;1.95;;;;;;;10.26;47.59;99811.13;5032212;28;20121;-67
2021/05/04 02:32:04;;;;;;;5.63;2.05;;;;;;;10.16;48.42;99807.84;5030466;28;20389;-68
2021/05/04 02:34:29;;;;;;;2.67;2.03;;;;;;;10.24;47.71;99810.47;5031899;28;20049;-64
2021/05/04 02:36:55;;;;;;;2.20;1.60;;;;;;;10.18;48.14;99796.13;5031035;28;20029;-65
2021/05/04 02:39:20;;;;;;;3.05;1.90;;;;;;;10.20;47.85;99798.56;5030805;28;20033;-65
2021/05/04 02:41:45;;;;;;;3.25;1.90;;;;;;;10.24;47.59;99789.31;5030063;28;20125;-67
2021/05/04 02:44:11;;;;;;;4.82;2.00;;;;;;;10.23;47.83;99790.34;5029801;28;20037;-68
2021/05/04 02:46:36;;;;;;;4.85;2.00;;;;;;;10.17;48.50;99783.88;5031177;28;20172;-67
2021/05/04 02:49:01;;;;;;;3.35;2.03;;;;;;;10.26;47.76;99768.84;5046698;28;20516;-67
2021/05/04 02:51:27;;;;;;;3.30;2.00;;;;;;;10.19;47.92;99762.59;5031593;28;20044;-66
2021/05/04 02:53:52;;;;;;;3.08;2.00;;;;;;;10.18;48.35;99763.59;5031218;28;20040;-66
2021/05/04 02:56:18;;;;;;;2.97;2.00;;;;;;;10.10;48.57;99766.22;5029977;28;20029;-67
2021/05/04 02:58:43;;;;;;;2.30;1.83;;;;;;;10.11;48.38;99765.25;5032233;28;20039;-68
2021/05/04 03:01:09;;;;;;;3.15;1.95;;;;;;;10.07;48.40;99761.28;5031187;28;20391;-67
2021/05/04 03:03:35;;;;;;;2.17;1.52;;;;;;;10.11;48.17;99749.41;5031602;28;20057;-67
2021/05/04 03:06:02;;;;;;;3.10;2.08;;;;;;;10.10;48.20;99755.66;5033026;28;20030;-66
2021/05/04 03:08:27;;;;;;;2.85;1.60;;;;;;;10.08;48.21;99753.22;5033921;28;20124;-67
2021/05/04 03:10:53;;;;;;;3.15;1.98;;;;;;;10.01;48.71;99741.66;5040683;28;20053;-67
2021/05/04 03:13:28;;;;;;;2.30;1.80;;;;;;;10.03;48.40;99729.09;5041722;28;20055;-67
2021/05/04 03:15:54;;;;;;;3.83;2.10;;;;;;;10.04;48.40;99736.03;5037276;28;20045;-66
2021/05/04 03:18:20;;;;;;;3.70;1.80;;;;;;;10.03;48.15;99731.72;5030725;28;20034;-65
2021/05/04 03:20:46;;;;;;;2.50;1.70;;;;;;;9.94;48.81;99733.59;5031694;28;20441;-67
2021/05/04 03:23:12;;;;;;;3.85;2.00;;;;;;;10.03;47.95;99718.53;5030915;28;20037;-65
2021/05/04 03:25:38;;;;;;;2.40;1.70;;;;;;;10.06;48.28;99725.28;5029725;28;20045;-67
2021/05/04 03:28:03;;;;;;;2.67;1.83;;;;;;;10.03;48.20;99717.72;5029990;28;20033;-68
2021/05/04 03:30:29;;;;;;;2.65;1.70;;;;;;;10.04;48.43;99708.81;5030924;28;20056;-67
2021/05/04 03:32:55;;;;;;;4.78;1.70;;;;;;;10.14;47.62;99712.91;5030267;28;20548;-65
2021/05/04 03:35:21;;;;;;;2.92;1.98;;;;;;;10.16;47.46;99708.28;5030663;28;20044;-66
2021/05/04 03:37:46;;;;;;;3.00;1.92;;;;;;;10.17;47.65;99699.34;5030865;28;20037;-65
2021/05/04 03:40:12;;;;;;;2.50;1.80;;;;;;;10.26;47.48;99686.13;5030393;28;20358;-66
2021/05/04 03:42:37;;;;;;;3.10;1.75;;;;;;;10.29;47.15;99689.25;5030090;28;20076;-65
2021/05/04 03:45:04;;;;;;;4.90;1.90;;;;;;;10.30;47.05;99677.72;5030359;28;20129;-66
2021/05/04 03:47:30;;;;;;;3.70;1.73;;;;;;;10.28;47.55;99677.06;5030273;28;20065;-67
2021/05/04 03:49:55;;;;;;;3.63;1.40;;;;;;;10.31;47.60;99678.53;5030660;28;20529;-67
2021/05/04 03:52:20;;;;;;;3.05;1.60;;;;;;;10.35;47.06;99666.63;5030022;28;20048;-65
2021/05/04 03:54:46;;;;;;;3.78;1.83;;;;;;;10.38;47.00;99669.75;5029603;28;20113;-65
2021/05/04 03:57:12;;;;;;;3.30;1.75;;;;;;;10.39;46.88;99652.91;5030953;28;20037;-65
2021/05/04 03:59:37;;;;;;;3.10;1.98;;;;;;;10.46;46.79;99660.13;5029761;28;20033;-65
2021/05/04 04:02:02;;;;;;;2.88;2.03;;;;;;;10.49;46.72;99650.06;5027994;28;20161;-65
2021/05/04 04:04:27;;;;;;;3.08;1.60;;;;;;;10.51;46.31;99656.00;5029741;28;20045;-65
2021/05/04 04:06:53;;;;;;;2.90;1.80;;;;;;;10.61;46.31;99656.59;5029728;28;20033;-65
2021/05/04 04:09:18;;;;;;;2.88;1.75;;;;;;;10.66;46.05;99650.78;5030467;28;20064;-65
2021/05/04 04:11:44;;;;;;;3.40;1.70;;;;;;;10.74;46.05;99652.56;5028970;28;20041;-67
2021/05/04 04:14:09;;;;;;;2.90;1.70;;;;;;;10.70;46.42;99649.47;5029521;28;20041;-66
2021/05/04 04:16:34;;;;;;;3.08;1.63;;;;;;;10.70;46.44;99643.31;5029234;28;20049;-66
2021/05/04 04:19:00;;;;;;;2.95;1.73;;;;;;;10.66;46.67;99639.41;5029995;28;20051;-65
2021/05/04 04:21:25;;;;;;;2.85;1.80;;;;;;;10.71;46.48;99644.97;5029257;28;20418;-65
2021/05/04 04:23:50;;;;;;;3.33;2.25;;;;;;;10.71;46.36;99637.88;5029553;28;20113;-65
2021/05/04 04:26:16;;;;;;;2.67;1.70;;;;;;;10.74;46.37;99637.50;5029956;28;20034;-66
2021/05/04 04:28:41;;;;;;;3.00;1.80;;;;;;;10.75;46.32;99628.59;5029444;28;20125;-65
2021/05/04 04:31:06;;;;;;;3.17;1.75;;;;;;;10.79;46.64;99621.13;5027799;28;20046;-65
2021/05/04 04:33:32;;;;;;;2.63;1.63;;;;;;;10.70;47.13;99623.00;5029659;28;20030;-65
2021/05/04 04:35:57;;;;;;;2.53;1.65;;;;;;;10.75;46.57;99620.66;5028686;28;20033;-66
2021/05/04 04:38:24;;;;;;;2.80;1.70;;;;;;;10.84;46.44;99624.06;5029325;28;20037;-66
2021/05/04 04:40:49;;;;;;;2.35;1.60;;;;;;;10.86;46.61;99622.06;5026771;28;20037;-66
2021/05/04 04:43:15;;;;;;;3.72;2.10;;;;;;;10.94;46.30;99622.03;5026839;28;20040;-66
2021/05/04 04:45:41;;;;;;;2.47;1.90;;;;;;;10.93;46.13;99619.53;5029853;28;20059;-65
2021/05/04 04:48:06;;;;;;;2.42;1.58;;;;;;;10.90;46.54;99609.31;5028758;28;20548;-66
2021/05/04 04:50:32;;;;;;;2.58;1.83;;;;;;;10.95;46.46;99621.00;5028670;28;20095;-66
2021/05/04 04:52:57;;;;;;;3.85;1.77;;;;;;;10.94;46.46;99610.59;5029171;28;20033;-66
2021/05/04 04:55:23;;;;;;;2.58;1.63;;;;;;;11.00;46.42;99613.38;5028780;28;20037;-66
2021/05/04 04:57:48;;;;;;;2.65;1.67;;;;;;;10.98;46.59;99606.59;5028362;28;20083;-65
2021/05/04 05:00:14;;;;;;;2.70;1.60;;;;;;;11.01;46.52;99604.44;5028836;28;20039;-65
2021/05/04 05:02:39;;;;;;;2.35;1.60;;;;;;;11.02;46.82;99602.63;5028507;28;20376;-66
2021/05/04 05:05:05;;;;;;;2.88;1.75;;;;;;;11.01;46.97;99599.16;5028116;28;20039;-66
2021/05/04 05:07:30;;;;;;;2.88;1.70;;;;;;;11.04;46.79;99598.78;5028749;28;20037;-66
2021/05/04 05:09:56;;;;;;;2.92;1.70;;;;;;;11.04;46.76;99598.78;5027388;28;20072;-66
2021/05/04 05:12:23;;;;;;;2.55;1.60;;;;;;;11.09;46.96;99600.91;5028202;28;20034;-66
2021/05/04 05:14:48;;;;;;;4.30;1.63;;;;;;;11.08;46.94;99591.31;5030462;28;20033;-67
2021/05/04 05:17:16;;;;;;;2.53;1.63;;;;;;;11.16;47.08;99587.78;5036946;28;20042;-66
2021/05/04 05:19:41;;;;;;;2.55;1.55;;;;;;;11.21;46.83;99577.50;5046920;28;20037;-66
2021/05/04 05:22:07;;;;;;;3.13;1.70;;;;;;;11.26;46.79;99577.78;5035493;28;20567;-67
2021/05/04 05:24:33;;;;;;;4.25;1.63;;;;;;;11.24;46.94;99577.94;5027967;28;20045;-66
2021/05/04 05:27:00;;;;;;;3.85;1.80;;;;;;;11.27;46.74;99579.41;5032694;28;20075;-67
2021/05/04 05:29:29;;;;;;;2.88;1.70;;;;;;;11.30;47.11;99578.22;5039876;28;20060;-67
2021/05/04 05:31:54;;;;;;;2.88;1.65;;;;;;;11.33;47.27;99583.19;5035598;28;20034;-67
2021/05/04 05:34:21;;;;;;;3.58;1.75;;;;;;;11.41;46.84;99580.44;5037940;28;20056;-67
2021/05/04 05:36:47;;;;;;;2.67;1.60;;;;;;;11.40;47.01;99584.91;5031424;28;20030;-67
2021/05/04 05:39:13;;;;;;;3.55;1.80;;;;;;;11.39;47.57;99579.78;5023670;28;20033;-66
2021/05/04 05:41:38;;;;;;;2.75;1.40;;;;;;;11.46;47.24;99580.72;5030455;28;20033;-67
2021/05/04 05:44:05;;;;;;;3.28;1.70;;;;;;;11.43;47.89;99592.50;5026380;28;20037;-68
2021/05/04 05:46:30;;;;;;;3.58;1.73;;;;;;;11.53;46.80;99594.88;5031686;28;20037;-66
2021/05/04 05:48:58;;;;;;;4.03;1.85;;;;;;;11.57;46.90;99579.47;5026349;28;20030;-67
2021/05/04 05:51:24;;;;;;;3.53;1.80;;;;;;;11.58;46.97;99589.84;5036994;28;20287;-65
2021/05/04 05:53:49;;;;;;;3.05;1.95;;;;;;;11.66;46.69;99576.53;5038066;28;20116;-66
2021/05/04 05:56:15;;;;;;;2.67;1.88;;;;;;;11.62;46.76;99577.91;5035744;28;20053;-67
2021/05/04 05:58:40;;;;;;;4.47;1.90;;;;;;;11.70;46.67;99574.34;5043687;28;20033;-67
2021/05/04 06:01:05;;;;;;;2.58;1.90;;;;;;;11.69;46.60;99570.88;5045650;28;20033;-66
2021/05/04 06:03:31;;;;;;;3.75;2.35;;;;;;;11.77;45.82;99583.19;5044514;28;20040;-66
2021/05/04 06:05:56;;;;;;;3.88;1.92;;;;;;;11.77;46.71;99574.44;5048490;28;20075;-65
2021/05/04 06:08:23;;;;;;;4.40;2.00;;;;;;;11.74;46.24;99570.34;5044915;28;20040;-66
2021/05/04 06:10:48;;;;;;;4.00;2.17;;;;;;;11.77;46.25;99566.50;5053027;28;20041;-66
2021/05/04 06:13:14;;;;;;;3.85;1.90;;;;;;;11.78;46.20;99568.97;5032494;28;20044;-65
2021/05/04 06:15:40;;;;;;;3.50;1.85;;;;;;;11.80;46.14;99588.16;5032338;28;20168;-66
2021/05/04 06:18:06;;;;;;;3.10;2.15;;;;;;;11.80;46.20;99585.50;5031889;28;20037;-66
2021/05/04 06:20:31;;;;;;;3.28;2.13;;;;;;;11.79;46.50;99581.19;5032563;28;20129;-65
2021/05/04 06:22:57;;;;;;;2.95;2.00;;;;;;;11.82;46.35;99585.31;5037342;28;20183;-66
2021/05/04 06:25:22;;;;;;;2.83;2.05;;;;;;;11.78;46.38;99560.22;5037803;28;20043;-66
2021/05/04 06:27:47;;;;;;;2.97;1.90;;;;;;;11.78;46.35;99545.13;5033958;28;20179;-68
2021/05/04 06:30:14;;;;;;;3.65;2.42;;;;;;;11.78;46.41;99560.22;5032278;28;20532;-68
2021/05/04 06:32:41;;;;;;;3.15;1.88;;;;;;;11.71;46.71;99554.00;5031314;28;20061;-69
2021/05/04 06:35:07;;;;;;;3.08;1.80;;;;;;;11.76;46.72;99572.81;5032494;28;20033;-69
2021/05/04 06:37:33;;;;;;;6.63;2.22;;;;;;;11.81;46.94;99563.28;5047359;28;20510;-68
2021/05/04 06:39:58;;;;;;;3.78;2.15;;;;;;;11.80;46.67;99559.00;5032626;28;20044;-69
2021/05/04 06:42:24;;;;;;;3.85;1.90;;;;;;;11.83;47.25;99556.00;5031449;28;20124;-68
2021/05/04 06:44:49;;;;;;;2.58;1.75;;;;;;;11.92;46.38;99551.47;5031753;28;20620;-68
2021/05/04 06:47:14;;;;;;;2.80;1.60;;;;;;;11.97;46.58;99549.06;5032394;28;20406;-68
2021/05/04 06:49:41;;;;;;;3.20;1.90;;;;;;;12.02;46.55;99540.56;5032343;28;20487;-67
2021/05/04 06:52:06;;;;;;;3.35;1.70;;;;;;;11.98;47.00;99544.59;5031552;28;20084;-69
2021/05/04 06:54:32;;;;;;;3.25;2.10;;;;;;;12.04;46.68;99544.69;5032383;28;20494;-68
2021/05/04 06:56:58;;;;;;;3.20;2.10;;;;;;;12.05;46.80;99538.34;5030321;28;20034;-68
2021/05/04 06:59:23;;;;;;;3.22;1.98;;;;;;;12.07;46.53;99538.19;5033883;28;20116;-68
2021/05/04 07:01:49;;;;;;;3.10;1.80;;;;;;;12.15;46.40;99543.38;5048223;28;20052;-68
2021/05/04 07:04:15;;;;;;;3.03;1.80;;;;;;;12.20;46.34;99533.03;5050167;28;20033;-68
2021/05/04 07:06:40;;;;;;;5.05;1.80;;;;;;;12.22;46.38;99540.78;5049720;28;20043;-67
2021/05/04 07:09:06;;;;;;;3.33;1.70;;;;;;;12.26;46.35;99529.63;5049193;28;20041;-68
2021/05/04 07:11:34;;;;;;;3.15;1.88;;;;;;;12.27;46.15;99530.44;5051803;28;20060;-69
2021/05/04 07:14:02;;;;;;;3.72;1.60;;;;;;;12.29;45.81;99531.09;5033236;28;20462;-68
2021/05/04 07:16:27;;;;;;;2.88;1.48;;;;;;;12.37;45.47;99527.50;5035844;28;20037;-68
2021/05/04 07:18:52;;;;;;;4.88;1.80;;;;;;;12.46;45.39;99527.19;5052557;28;20025;-68
2021/05/04 07:21:18;;;;;;;2.70;1.55;;;;;;;12.55;44.72;99535.84;5048073;28;20033;-67
2021/05/04 07:23:43;;;;;;;3.60;1.60;;;;;;;12.55;44.84;99535.84;5045982;28;20603;-69
2021/05/04 07:26:10;;;;;;;2.35;1.38;;;;;;;12.57;45.49;99530.38;5050427;28;20147;-69
2021/05/04 07:28:35;;;;;;;4.70;1.85;;;;;;;12.66;44.64;99534.53;5051910;28;20541;-67
2021/05/04 07:31:00;;;;;;;3.42;1.50;;;;;;;12.67;45.06;99542.28;5051143;28;20064;-67
2021/05/04 07:33:26;;;;;;;2.83;1.60;;;;;;;12.65;44.88;99540.84;5043651;28;20108;-68
2021/05/04 07:35:53;;;;;;;4.13;1.70;;;;;;;12.79;43.29;99547.09;5035980;28;20075;-68
2021/05/04 07:38:18;;;;;;;11.20;1.80;;;;;;;12.84;42.55;99542.84;5043980;28;20095;-68
2021/05/04 07:40:44;;;;;;;4.63;2.05;;;;;;;12.92;42.81;99533.97;5052332;28;20037;-68
2021/05/04 07:43:10;;;;;;;4.05;1.50;;;;;;;12.99;42.73;99539.28;5046148;28;20041;-68
2021/05/04 07:45:36;;;;;;;4.95;1.80;;;;;;;13.03;42.14;99535.25;5049057;28;20037;-68
2021/05/04 07:48:03;;;;;;;5.75;1.75;;;;;;;13.01;42.94;99527.47;5029726;28;20041;-68
2021/05/04 07:50:29;;;;;;;4.07;1.42;;;;;;;13.07;41.19;99524.06;5053473;28;20040;-67
2021/05/04 07:52:55;;;;;;;4.00;1.42;;;;;;;12.98;42.79;99532.34;5051690;28;20037;-68
2021/05/04 07:55:20;;;;;;;2.25;1.42;;;;;;;13.08;40.57;99516.91;5058114;28;20043;-68
2021/05/04 07:57:46;;;;;;;3.58;1.10;;;;;;;13.09;39.58;99542.47;5057253;28;20555;-67
2021/05/04 08:00:12;;;;;;;7.93;1.60;;;;;;;13.09;39.45;99526.53;5051241;28;20041;-67
2021/05/04 08:02:39;;;;;;;4.07;1.08;;;;;;;13.13;38.00;99528.63;5050742;28;20178;-67
2021/05/04 08:05:05;;;;;;;3.05;1.20;;;;;;;13.14;38.79;99526.78;5044236;28;20463;-68
2021/05/04 08:07:30;;;;;;;5.53;1.02;;;;;;;13.13;37.18;99525.97;5051200;28;20036;-68
2021/05/04 08:09:55;;;;;;;4.32;1.00;;;;;;;13.20;37.30;99523.31;5051043;28;20037;-68
2021/05/04 08:12:21;;;;;;;4.50;1.42;;;;;;;13.18;38.05;99534.16;5045712;28;20407;-69
2021/05/04 08:14:46;;;;;;;5.55;1.35;;;;;;;13.28;36.48;99533.03;5032381;28;20025;-67
2021/05/04 08:17:18;;;;;;;6.75;1.60;;;;;;;13.35;36.89;99534.72;5035322;28;20132;-67
2021/05/04 08:19:43;;;;;;;7.97;1.48;;;;;;;13.35;37.43;99533.91;5044317;28;20036;-68
2021/05/04 08:22:09;;;;;;;9.73;2.03;;;;;;;13.32;37.61;99536.91;5048051;28;20037;-68
2021/05/04 08:24:34;;;;;;;14.05;1.90;;;;;;;13.24;39.52;99534.41;5047074;28;20024;-68
2021/05/04 08:27:00;;;;;;;17.35;1.92;;;;;;;13.31;39.58;99538.75;5050432;28;20083;-67
2021/05/04 08:29:25;;;;;;;15.25;1.90;;;;;;;13.22;40.21;99562.97;5047218;28;20033;-67
2021/05/04 08:31:51;;;;;;;7.28;1.73;;;;;;;13.22;40.76;99558.47;5050795;28;20029;-68
2021/05/04 08:34:16;;;;;;;7.82;1.20;;;;;;;13.13;43.19;99564.94;5045196;28;20556;-68
2021/05/04 08:36:42;;;;;;;2.78;1.10;;;;;;;13.07;42.16;99563.88;5042702;28;20559;-67
2021/05/04 08:39:07;;;;;;;8.63;1.10;;;;;;;13.06;42.18;99564.06;5047128;28;20565;-69
2021/05/04 08:41:34;;;;;;;2.97;1.10;;;;;;;13.08;42.39;99560.19;5038556;28;20394;-69
2021/05/04 08:43:59;;;;;;;8.15;1.42;;;;;;;13.04;42.60;99566.91;5045485;28;20508;-68
2021/05/04 08:46:25;;;;;;;2.78;1.65;;;;;;;13.09;43.32;99563.69;5050153;28;20045;-68
2021/05/04 08:48:50;;;;;;;1.98;1.10;;;;;;;13.05;42.91;99573.03;5045824;28;20033;-67
2021/05/04 08:51:17;;;;;;;4.80;1.33;;;;;;;13.00;44.07;99552.38;5042201;28;20081;-67
2021/05/04 08:53:43;;;;;;;2.55;1.02;;;;;;;12.98;43.46;99567.66;5050963;28;20052;-68
2021/05/04 08:56:12;;;;;;;4.20;1.40;;;;;;;13.02;43.62;99568.13;5039755;28;20502;-68
2021/05/04 08:58:37;;;;;;;6.80;1.30;;;;;;;13.01;44.98;99585.84;5050918;28;20222;-68
2021/05/04 09:01:03;;;;;;;11.35;2.17;;;;;;;13.17;44.09;99592.75;5041394;28;20124;-67
2021/05/04 09:03:40;;;;;;;8.57;1.15;;;;;;;13.23;43.74;99592.00;5051237;28;20048;-66
2021/05/04 09:06:11;;;;;;;5.38;1.05;;;;;;;13.05;44.75;99596.94;5043281;28;20031;-69
2021/05/04 09:17:20;;;;;;;5.80;1.40;;;;;;;12.89;45.50;99566.97;4968763;28;20042;-67
2021/05/04 09:22:34;;;;;;;4.60;1.40;;;;;;;12.82;46.55;99587.31;5019081;28;20037;-68
2021/05/04 09:24:59;;;;;;;7.03;1.40;;;;;;;12.88;45.74;99591.88;5046461;28;20029;-67
2021/05/04 09:27:25;;;;;;;7.53;1.40;;;;;;;12.85;46.38;99596.75;5048999;28;20033;-68
2021/05/04 09:29:53;;;;;;;5.85;1.27;;;;;;;12.90;45.85;99581.09;5039902;28;20405;-69
2021/05/04 09:32:20;;;;;;;7.47;1.55;;;;;;;12.91;45.84;99578.22;5047872;28;20037;-68
2021/05/04 09:34:57;;;;;;;3.95;1.33;;;;;;;12.93;47.53;99573.56;5044043;28;20494;-68
2021/05/04 09:37:43;;;;;;;4.25;1.35;;;;;;;13.11;46.08;99570.44;5048292;28;20032;-68
2021/05/04 09:40:29;;;;;;;4.15;1.30;;;;;;;13.16;47.57;99565.38;5044593;28;20279;-70
2021/05/04 09:43:13;;;;;;;3.00;1.10;;;;;;;13.32;45.92;99564.31;5044655;28;20140;-68
2021/05/04 09:45:42;;;;;;;6.00;1.83;;;;;;;13.45;46.46;99568.06;5036282;28;20037;-68
2021/05/04 09:48:08;;;;;;;4.13;1.10;;;;;;;13.57;46.25;99562.03;5043316;28;20511;-69
2021/05/04 09:50:45;;;;;;;5.55;1.15;;;;;;;13.52;47.48;99547.69;5047376;28;20043;-69
2021/05/04 09:53:11;;;;;;;4.20;1.40;;;;;;;13.47;46.10;99552.78;5044703;28;20036;-69
2021/05/04 09:55:56;;;;;;;10.82;1.73;;;;;;;13.41;46.84;99556.19;5049343;28;20033;-69
2021/05/04 09:58:39;;;;;;;3.30;1.23;;;;;;;13.45;46.29;99558.28;5044749;28;20044;-69
2021/05/04 10:01:07;;;;;;;3.78;0.98;;;;;;;13.36;46.87;99575.34;5049018;28;20461;-68
2021/05/04 10:03:33;;;;;;;2.38;1.10;;;;;;;13.16;48.26;99576.00;5044251;28;20417;-69
2021/05/04 10:06:00;;;;;;;2.10;0.80;;;;;;;13.15;49.96;99573.53;5045907;28;20039;-68
2021/05/04 10:08:32;;;;;;;1.88;1.00;;;;;;;13.15;48.78;99569.03;5029456;28;20033;-68
2021/05/04 10:10:59;;;;;;;5.45;1.10;;;;;;;13.21;49.02;99577.25;5046936;28;20123;-68
2021/05/04 10:13:28;;;;;;;8.10;1.20;;;;;;;13.15;48.85;99578.84;5038334;28;20362;-69
2021/05/04 10:15:54;;;;;;;11.77;1.48;;;;;;;13.28;48.48;99583.47;5030690;28;20038;-68
2021/05/04 10:18:21;;;;;;;2.47;1.00;;;;;;;13.15;48.81;99584.97;5052438;28;20593;-69
2021/05/04 10:20:47;;;;;;;3.17;1.08;;;;;;;13.06;49.23;99574.66;5048669;28;20115;-68
2021/05/04 10:23:12;;;;;;;2.53;0.98;;;;;;;13.09;49.41;99583.09;5041439;28;20434;-68
2021/05/04 10:25:41;;;;;;;2.25;1.10;;;;;;;13.06;50.98;99580.81;5048159;28;20071;-68
2021/05/04 10:28:10;;;;;;;4.63;1.13;;;;;;;13.14;49.07;99566.59;5032869;28;20502;-69
2021/05/04 10:30:35;;;;;;;5.07;0.90;;;;;;;13.12;50.04;99564.13;5043856;28;20100;-69
2021/05/04 10:33:09;;;;;;;3.22;1.00;;;;;;;13.11;50.23;99573.09;5038416;28;20030;-69
2021/05/04 10:35:41;;;;;;;8.45;1.15;;;;;;;13.01;49.48;99583.19;5044795;28;20082;-69
2021/05/04 10:38:12;;;;;;;3.42;1.17;;;;;;;13.00;50.74;99596.69;5045762;28;20064;-69
2021/05/04 10:40:42;;;;;;;5.18;1.10;;;;;;;13.09;49.49;99574.31;5051904;28;20044;-68
2021/05/04 10:43:23;;;;;;;4.70;1.20;;;;;;;13.00;51.61;99589.53;5046293;28;20041;-69
2021/05/04 10:45:50;;;;;;;6.15;1.08;;;;;;;12.96;50.45;99601.53;5043592;28;20030;-69
2021/05/04 10:48:16;;;;;;;5.80;1.23;;;;;;;13.07;50.24;99586.94;5046978;28;20048;-68
2021/05/04 10:50:48;;;;;;;5.13;1.30;;;;;;;12.94;50.79;99612.34;5051545;28;20047;-69
2021/05/04 10:53:14;;;;;;;;;;;;;;;12.97;50.22;99611.16;5050202;28;20032;-70
2021/05/04 10:55:51;;;;;;;5.90;1.60;;;;;;;12.90;50.35;99597.81;5052151;28;19934;-69
2021/05/04 10:58:16;;;;;;;4.57;1.10;;;;;;;12.92;50.51;99603.75;5045509;28;20061;-69
2021/05/04 11:01:06;;;;;;;8.15;1.20;;;;;;;12.86;50.61;99591.25;5032984;28;20060;-68
2021/05/04 11:03:32;;;;;;;2.95;1.00;;;;;;;12.81;51.52;99612.22;5029887;28;20312;-68
2021/05/04 11:06:03;;;;;;;2.30;1.10;;;;;;;12.93;50.81;99602.75;5048073;28;20510;-68
2021/05/04 11:08:54;;;;;;;5.22;1.08;;;;;;;12.93;50.67;99565.59;5029008;28;20130;-69
2021/05/04 11:14:12;;;;;;;4.38;1.10;;;;;;;13.01;50.27;99585.03;5035887;28;20040;-69
2021/05/04 11:16:46;;;;;;;14.32;1.42;;;;;;;13.12;49.59;99573.91;5029635;28;20091;-68
2021/05/04 11:19:16;;;;;;;6.15;1.30;;;;;;;13.01;50.10;99604.44;5045123;28;20124;-69
2021/05/04 11:21:50;;;;;;;3.75;1.15;;;;;;;13.01;51.26;99593.00;5050742;28;20052;-70
2021/05/04 11:24:20;;;;;;;4.70;1.13;;;;;;;12.98;51.69;99585.44;5045631;28;20068;-70
2021/05/04 11:26:48;;;;;;;4.87;1.20;;;;;;;12.99;50.83;99584.41;5048720;28;20025;-70
2021/05/04 11:29:19;;;;;;;2.45;1.00;;;;;;;13.03;51.34;99594.44;5045782;28;20439;-69
2021/05/04 11:31:46;;;;;;;9.73;1.40;;;;;;;13.13;50.82;99599.44;5051140;28;20036;-69
2021/05/04 11:34:37;;;;;;;3.95;1.40;;;;;;;13.06;50.74;99594.09;5045266;28;20033;-69
2021/05/04 11:37:04;;;;;;;2.17;1.10;;;;;;;13.04;51.78;99595.25;5044959;28;20126;-68
2021/05/04 11:39:29;;;;;;;3.17;1.00;;;;;;;12.75;52.87;99594.38;5046296;28;20390;-70
2021/05/04 11:42:00;;;;;;;2.58;1.20;;;;;;;12.92;51.89;99595.81;5043833;28;20029;-67
2021/05/04 11:44:29;;;;;;;7.67;1.30;;;;;;;12.91;52.37;99599.44;5044439;28;20043;-70
2021/05/04 11:46:56;;;;;;;5.22;1.02;;;;;;;13.04;51.62;99601.41;5037905;28;20367;-68